aviador You're here:

KIXA Decoded Metar

in
Report Time2018-06-25 01:55:00
UTC Time2018-06-25 02:05:26
Flight Rules vfr VFR
WindCalm
Visibility9999 m
Phenomena:N/A
Clouds:N/A
Expected CloudBase > 1,200 ft AGL from Temp-Dew spread
CeilingNone
Temp25°C
Dew Point22°C (83% RH)
QNH1015 hPa
Raw Report
KIXA 250155Z AUTO 00000KT 10SM CLR 25/22 A2996 RMK AO2=

Extra information for KIXA:More info

Social comments